Thunder radar more information blitzortung!


Radar de pluja more information rain snow radar


Visita la nostra xarxa de llocs de meteo:

Template documentation
and downloads

And another site



No particular awareness of the weather is required.    There are no Weather-warnings

Pagina Historial Weather Underground text

Diari Resum Agost 14, 2017 Unitats:  Tant    Imperial   Mètric
« Previous Dia
SegĂźent Dia »
Diari Setmana Mensual Anual Personalitzada
  Maxima: Minima: Media:
Temperatura: 91.4 °F /  33.0 °C 62.8 °F /  17.1 °C 80.6 °F /  27 °C
Punt de rosada: 65.3 °F /  18.5 °C 49.6 °F /  9.8 °C 56.7 °F /  13.7 °C
Humitat: 84 % 29 % 47 %
Wind Speed: 13.8 mph /  22.2 km/h - 4.3 mph /  6.9 km/h
RĂ fegues de vent: 13.8 mph /  22.2 km/h - -
Vent:- - SSW
Pression baro: 30.1 in /  1017.8 hPa 30 in /  1014.8 hPa -
Precipitacions: 0 in /  0.0 mm    
Historical Graphs
 
 
Dades de taula per Agost 14, 2017
Temps Temperatura Punt de rosada Pression baro Vent Wind Speed RĂ fegues de vent Humitat Rainfall Rate (Hourly)
00:01 71.1 °F /  21.7 °C 60.1 °F /  15.6 °C 30.1 in /  1017.8 hPa WSW 2.3 mph /  3.7 km/h 2.3 mph /  3.7 km/h 68 % 0 in /  0.0 mm
00:05 65.7 °F /  18.7 °C 59.7 °F /  15.4 °C 30 in /  1015.8 hPa Calm   1 mph /  1.6 km/h 81 % 0 in /  0.0 mm
00:06 71.1 °F /  21.7 °C 60.1 °F /  15.6 °C 30.1 in /  1017.8 hPa Calm     68 % 0 in /  0.0 mm
00:15 65.3 °F /  18.5 °C 59.4 °F /  15.2 °C 30 in /  1015.8 hPa WNW 1 mph /  1.6 km/h 2 mph /  3.2 km/h 81 % 0 in /  0.0 mm
00:25 65.1 °F /  18.4 °C 59.2 °F /  15.1 °C 30 in /  1015.8 hPa Calm     81 % 0 in /  0.0 mm
00:35 65.1 °F /  18.4 °C 59.5 °F /  15.3 °C 30 in /  1015.8 hPa Calm   1 mph /  1.6 km/h 82 % 0 in /  0.0 mm
00:45 64.9 °F /  18.3 °C 59 °F /  15.0 °C 30 in /  1015.8 hPa SW 1 mph /  1.6 km/h 2 mph /  3.2 km/h 81 % 0 in /  0.0 mm
00:55 64.8 °F /  18.2 °C 59.2 °F /  15.1 °C 30 in /  1016.8 hPa Calm     82 % 0 in /  0.0 mm
01:05 64.4 °F /  18.0 °C 58.8 °F /  14.9 °C 30 in /  1015.8 hPa Calm   1 mph /  1.6 km/h 82 % 0 in /  0.0 mm
01:15 64 °F /  17.8 °C 58.5 °F /  14.7 °C 30 in /  1015.8 hPa WSW 1 mph /  1.6 km/h 1 mph /  1.6 km/h 82 % 0 in /  0.0 mm
01:25 63.9 °F /  17.7 °C 58.3 °F /  14.6 °C 30 in /  1014.8 hPa SW 1 mph /  1.6 km/h 2 mph /  3.2 km/h 82 % 0 in /  0.0 mm
01:35 63.7 °F /  17.6 °C 58.1 °F /  14.5 °C 30 in /  1016.8 hPa SW 2 mph /  3.2 km/h 2 mph /  3.2 km/h 82 % 0 in /  0.0 mm
01:45 63.1 °F /  17.3 °C 57.9 °F /  14.4 °C 30 in /  1016.8 hPa SW 1 mph /  1.6 km/h 2 mph /  3.2 km/h 83 % 0 in /  0.0 mm
01:55 63.1 °F /  17.3 °C 57.9 °F /  14.4 °C 30 in /  1015.8 hPa Calm   2 mph /  3.2 km/h 83 % 0 in /  0.0 mm
02:05 63 °F /  17.2 °C 57.7 °F /  14.3 °C 30 in /  1016.8 hPa SW 1 mph /  1.6 km/h 1 mph /  1.6 km/h 83 % 0 in /  0.0 mm
02:15 63 °F /  17.2 °C 57.7 °F /  14.3 °C 30 in /  1016.8 hPa SW 1 mph /  1.6 km/h 2 mph /  3.2 km/h 83 % 0 in /  0.0 mm
02:25 62.8 °F /  17.1 °C 57.6 °F /  14.2 °C 30 in /  1016.8 hPa SW 1 mph /  1.6 km/h 1 mph /  1.6 km/h 83 % 0 in /  0.0 mm
02:35 63.1 °F /  17.3 °C 58.3 °F /  14.6 °C 30 in /  1015.8 hPa Calm   1 mph /  1.6 km/h 84 % 0 in /  0.0 mm
02:45 64 °F /  17.8 °C 59.2 °F /  15.1 °C 30 in /  1015.8 hPa Calm     84 % 0 in /  0.0 mm
02:55 63.9 °F /  17.7 °C 58.6 °F /  14.8 °C 30 in /  1015.8 hPa WSW 1 mph /  1.6 km/h 2 mph /  3.2 km/h 83 % 0 in /  0.0 mm
03:05 64.4 °F /  18.0 °C 58.5 °F /  14.7 °C 30 in /  1016.8 hPa SW 1 mph /  1.6 km/h 2 mph /  3.2 km/h 81 % 0 in /  0.0 mm
03:15 64.8 °F /  18.2 °C 58.5 °F /  14.7 °C 30 in /  1016.8 hPa SW 1 mph /  1.6 km/h 3 mph /  4.8 km/h 80 % 0 in /  0.0 mm
03:25 65.5 °F /  18.6 °C 59.2 °F /  15.1 °C 30 in /  1015.8 hPa Calm   2 mph /  3.2 km/h 80 % 0 in /  0.0 mm
03:35 66.2 °F /  19.0 °C 59.2 °F /  15.1 °C 30 in /  1016.8 hPa WSW 1 mph /  1.6 km/h 2 mph /  3.2 km/h 78 % 0 in /  0.0 mm
03:45 66.9 °F /  19.4 °C 59.5 °F /  15.3 °C 30 in /  1016.8 hPa SW 1 mph /  1.6 km/h 2 mph /  3.2 km/h 77 % 0 in /  0.0 mm
03:55 68.4 °F /  20.2 °C 60.4 °F /  15.8 °C 30 in /  1016.8 hPa SW 1 mph /  1.6 km/h 2 mph /  3.2 km/h 76 % 0 in /  0.0 mm
04:05 68.7 °F /  20.4 °C 60.4 °F /  15.8 °C 30 in /  1016.8 hPa SW 1 mph /  1.6 km/h 2 mph /  3.2 km/h 75 % 0 in /  0.0 mm
04:15 70.7 °F /  21.5 °C 62.1 °F /  16.7 °C 30 in /  1016.8 hPa SW 2 mph /  3.2 km/h 2 mph /  3.2 km/h 74 % 0 in /  0.0 mm
04:25 72.1 °F /  22.3 °C 61.9 °F /  16.6 °C 30 in /  1016.8 hPa South 2 mph /  3.2 km/h 2 mph /  3.2 km/h 70 % 0 in /  0.0 mm
04:35 72.9 °F /  22.7 °C 62.4 °F /  16.9 °C 30.1 in /  1017.8 hPa South 1 mph /  1.6 km/h 2 mph /  3.2 km/h 70 % 0 in /  0.0 mm
04:45 73.6 °F /  23.1 °C 62.4 °F /  16.9 °C 30.1 in /  1017.8 hPa SSW 1 mph /  1.6 km/h 4 mph /  6.4 km/h 68 % 0 in /  0.0 mm
04:55 74.1 °F /  23.4 °C 63.3 °F /  17.4 °C 30 in /  1016.8 hPa SW 3 mph /  4.8 km/h 3 mph /  4.8 km/h 69 % 0 in /  0.0 mm
05:05 74.7 °F /  23.7 °C 63.9 °F /  17.7 °C 30.1 in /  1017.8 hPa SW 2 mph /  3.2 km/h 6 mph /  9.7 km/h 69 % 0 in /  0.0 mm
05:15 74.7 °F /  23.7 °C 63.9 °F /  17.7 °C 30.1 in /  1017.8 hPa SW 3 mph /  4.8 km/h 5 mph /  8.0 km/h 69 % 0 in /  0.0 mm
05:25 75.7 °F /  24.3 °C 64.4 °F /  18.0 °C 30 in /  1016.8 hPa SW 3 mph /  4.8 km/h 4 mph /  6.4 km/h 68 % 0 in /  0.0 mm
05:35 76.8 °F /  24.9 °C 64.6 °F /  18.1 °C 30 in /  1016.8 hPa SW 3 mph /  4.8 km/h 4 mph /  6.4 km/h 66 % 0 in /  0.0 mm
10:37 77.4 °F /  25.2 °C 64.2 °F /  17.9 °C 30 in /  1016.8 hPa South 3.5 mph /  5.6 km/h 3.5 mph /  5.6 km/h 64 % 0 in /  0.0 mm
10:42 78.4 °F /  25.8 °C 64.8 °F /  18.2 °C 30 in /  1016.8 hPa WSW 4.6 mph /  7.4 km/h 4.6 mph /  7.4 km/h 63 % 0 in /  0.0 mm
10:47 78.6 °F /  25.9 °C 64.6 °F /  18.1 °C 30 in /  1016.8 hPa SSW 5.8 mph /  9.3 km/h 5.8 mph /  9.3 km/h 62 % 0 in /  0.0 mm
10:52 79.3 °F /  26.3 °C 64.8 °F /  18.2 °C 30 in /  1016.8 hPa SSE 3.5 mph /  5.6 km/h 3.5 mph /  5.6 km/h 61 % 0 in /  0.0 mm
10:57 79.9 °F /  26.6 °C 65.1 °F /  18.4 °C 30 in /  1016.8 hPa SW 3.5 mph /  5.6 km/h 3.5 mph /  5.6 km/h 61 % 0 in /  0.0 mm
11:02 79.9 °F /  26.6 °C 65.1 °F /  18.4 °C 30 in /  1016.8 hPa SW 4.6 mph /  7.4 km/h 4.6 mph /  7.4 km/h 61 % 0 in /  0.0 mm
11:07 79.7 °F /  26.5 °C 64 °F /  17.8 °C 30 in /  1016.8 hPa South 4.9 mph /  7.9 km/h 4.9 mph /  7.9 km/h 59 % 0 in /  0.0 mm
11:12 80.4 °F /  26.9 °C 65.3 °F /  18.5 °C 30 in /  1016.8 hPa SSW 3.6 mph /  5.8 km/h 3.6 mph /  5.8 km/h 60 % 0 in /  0.0 mm
11:17 81.1 °F /  27.3 °C 64.6 °F /  18.1 °C 30 in /  1016.8 hPa West 2.3 mph /  3.7 km/h 2.3 mph /  3.7 km/h 57 % 0 in /  0.0 mm
11:22 81.9 °F /  27.7 °C 65.1 °F /  18.4 °C 30 in /  1016.8 hPa West 6 mph /  9.7 km/h 6 mph /  9.7 km/h 57 % 0 in /  0.0 mm
11:27 81.9 °F /  27.7 °C 65.1 °F /  18.4 °C 30 in /  1016.8 hPa SW 5.8 mph /  9.3 km/h 5.8 mph /  9.3 km/h 57 % 0 in /  0.0 mm
11:32 82.8 °F /  28.2 °C 64.9 °F /  18.3 °C 30 in /  1016.8 hPa WSW 4.6 mph /  7.4 km/h 4.6 mph /  7.4 km/h 55 % 0 in /  0.0 mm
11:37 82.6 °F /  28.1 °C 64.8 °F /  18.2 °C 30 in /  1016.8 hPa SW 8.1 mph /  13.0 km/h 8.1 mph /  13.0 km/h 55 % 0 in /  0.0 mm
11:42 82.8 °F /  28.2 °C 64.4 °F /  18.0 °C 30 in /  1016.8 hPa South 4.6 mph /  7.4 km/h 4.6 mph /  7.4 km/h 54 % 0 in /  0.0 mm
11:47 83.5 °F /  28.6 °C 64.6 °F /  18.1 °C 30 in /  1016.8 hPa WSW 3.8 mph /  6.1 km/h 3.8 mph /  6.1 km/h 53 % 0 in /  0.0 mm
11:52 84 °F /  28.9 °C 64.6 °F /  18.1 °C 30 in /  1016.8 hPa SW 4.6 mph /  7.4 km/h 4.6 mph /  7.4 km/h 52 % 0 in /  0.0 mm
11:57 83.8 °F /  28.8 °C 64.2 °F /  17.9 °C 30 in /  1016.8 hPa SW 4.6 mph /  7.4 km/h 4.6 mph /  7.4 km/h 52 % 0 in /  0.0 mm
12:02 84.4 °F /  29.1 °C 63.7 °F /  17.6 °C 30 in /  1015.8 hPa SW 5.8 mph /  9.3 km/h 5.8 mph /  9.3 km/h 50 % 0 in /  0.0 mm
12:07 84.9 °F /  29.4 °C 63.7 °F /  17.6 °C 30 in /  1015.8 hPa WSW 8.1 mph /  13.0 km/h 8.1 mph /  13.0 km/h 49 % 0 in /  0.0 mm
12:12 84.6 °F /  29.2 °C 62.1 °F /  16.7 °C 30 in /  1015.8 hPa SW 9.2 mph /  14.8 km/h 9.2 mph /  14.8 km/h 47 % 0 in /  0.0 mm
12:17 84.7 °F /  29.3 °C 62.2 °F /  16.8 °C 30 in /  1016.8 hPa WSW 6.9 mph /  11.1 km/h 6.9 mph /  11.1 km/h 47 % 0 in /  0.0 mm
12:22 84.7 °F /  29.3 °C 61 °F /  16.1 °C 30 in /  1016.8 hPa SW 8.1 mph /  13.0 km/h 8.1 mph /  13.0 km/h 45 % 0 in /  0.0 mm
12:27 85.3 °F /  29.6 °C 61.5 °F /  16.4 °C 30 in /  1016.8 hPa SSW 7.4 mph /  11.9 km/h 7.4 mph /  11.9 km/h 45 % 0 in /  0.0 mm
12:32 86 °F /  30.0 °C 61 °F /  16.1 °C 30 in /  1016.8 hPa WSW 5.8 mph /  9.3 km/h 5.8 mph /  9.3 km/h 43 % 0 in /  0.0 mm
12:37 86.7 °F /  30.4 °C 62.2 °F /  16.8 °C 30 in /  1016.8 hPa SSW 5.8 mph /  9.3 km/h 5.8 mph /  9.3 km/h 44 % 0 in /  0.0 mm
12:42 87.1 °F /  30.6 °C 62.4 °F /  16.9 °C 30 in /  1016.8 hPa SSW 5.8 mph /  9.3 km/h 5.8 mph /  9.3 km/h 44 % 0 in /  0.0 mm
12:47 86.7 °F /  30.4 °C 62.2 °F /  16.8 °C 30 in /  1016.8 hPa SW 4.6 mph /  7.4 km/h 4.6 mph /  7.4 km/h 44 % 0 in /  0.0 mm
12:52 87.1 °F /  30.6 °C 61.9 °F /  16.6 °C 30 in /  1016.8 hPa West 8.1 mph /  13.0 km/h 8.1 mph /  13.0 km/h 43 % 0 in /  0.0 mm
12:57 87.4 °F /  30.8 °C 62.2 °F /  16.8 °C 30 in /  1016.8 hPa WNW 6.9 mph /  11.1 km/h 6.9 mph /  11.1 km/h 43 % 0 in /  0.0 mm
13:02 87.1 °F /  30.6 °C 61.2 °F /  16.2 °C 30 in /  1015.8 hPa SW 8.7 mph /  14.0 km/h 8.7 mph /  14.0 km/h 42 % 0 in /  0.0 mm
13:07 87.3 °F /  30.7 °C 61.3 °F /  16.3 °C 30 in /  1015.8 hPa SW 6.9 mph /  11.1 km/h 6.9 mph /  11.1 km/h 42 % 0 in /  0.0 mm
13:12 87.4 °F /  30.8 °C 62.2 °F /  16.8 °C 30 in /  1015.8 hPa SSW 5.8 mph /  9.3 km/h 5.8 mph /  9.3 km/h 43 % 0 in /  0.0 mm
13:18 88.2 °F /  31.2 °C 62.2 °F /  16.8 °C 30 in /  1015.8 hPa SW 5.8 mph /  9.3 km/h 5.8 mph /  9.3 km/h 42 % 0 in /  0.0 mm
13:22 88.3 °F /  31.3 °C 60.3 °F /  15.7 °C 30 in /  1015.8 hPa SSE 5.8 mph /  9.3 km/h 5.8 mph /  9.3 km/h 39 % 0 in /  0.0 mm
13:27 88.7 °F /  31.5 °C 60.6 °F /  15.9 °C 30 in /  1015.8 hPa SE 5.8 mph /  9.3 km/h 5.8 mph /  9.3 km/h 39 % 0 in /  0.0 mm
13:32 89.8 °F /  32.1 °C 60.8 °F /  16.0 °C 30 in /  1015.8 hPa East 6.9 mph /  11.1 km/h 6.9 mph /  11.1 km/h 38 % 0 in /  0.0 mm
13:38 88.7 °F /  31.5 °C 59.7 °F /  15.4 °C 30 in /  1015.8 hPa SSE 5.8 mph /  9.3 km/h 6.2 mph /  10.0 km/h 38 % 0 in /  0.0 mm
13:39 89.2 °F /  31.8 °C 60.3 °F /  15.7 °C 30 in /  1015.8 hPa SSE 4.6 mph /  7.4 km/h 4.6 mph /  7.4 km/h 38 % 0 in /  0.0 mm
13:44 89.1 °F /  31.7 °C 59.4 °F /  15.2 °C 30 in /  1015.8 hPa South 8.1 mph /  13.0 km/h 8.1 mph /  13.0 km/h 37 % 0 in /  0.0 mm
13:49 88.9 °F /  31.6 °C 59.2 °F /  15.1 °C 30 in /  1015.8 hPa SSW 3.5 mph /  5.6 km/h 4.3 mph /  6.9 km/h 37 % 0 in /  0.0 mm
13:54 89.2 °F /  31.8 °C 58.8 °F /  14.9 °C 30 in /  1015.8 hPa SW 7.4 mph /  11.9 km/h 7.4 mph /  11.9 km/h 36 % 0 in /  0.0 mm
13:59 88.9 °F /  31.6 °C 57.7 °F /  14.3 °C 30 in /  1015.8 hPa SSW 9.2 mph /  14.8 km/h 9.2 mph /  14.8 km/h 35 % 0 in /  0.0 mm
14:04 89.1 °F /  31.7 °C 57.7 °F /  14.3 °C 30 in /  1015.8 hPa SW 5.8 mph /  9.3 km/h 5.8 mph /  9.3 km/h 35 % 0 in /  0.0 mm
14:09 89.6 °F /  32.0 °C 58.3 °F /  14.6 °C 30 in /  1015.8 hPa SE 4.6 mph /  7.4 km/h 4.6 mph /  7.4 km/h 35 % 0 in /  0.0 mm
14:14 90.1 °F /  32.3 °C 58.8 °F /  14.9 °C 30 in /  1015.8 hPa SSW 10.4 mph /  16.7 km/h 10.4 mph /  16.7 km/h 35 % 0 in /  0.0 mm
14:19 90 °F /  32.2 °C 57.7 °F /  14.3 °C 30 in /  1015.8 hPa SW 7.4 mph /  11.9 km/h 7.4 mph /  11.9 km/h 34 % 0 in /  0.0 mm
14:24 89.1 °F /  31.7 °C 57 °F /  13.9 °C 30 in /  1015.8 hPa SW 10.4 mph /  16.7 km/h 10.4 mph /  16.7 km/h 34 % 0 in /  0.0 mm
14:29 89.2 °F /  31.8 °C 57.2 °F /  14.0 °C 30 in /  1015.8 hPa SW 3.6 mph /  5.8 km/h 3.6 mph /  5.8 km/h 34 % 0 in /  0.0 mm
14:34 88.3 °F /  31.3 °C 54.7 °F /  12.6 °C 30 in /  1015.8 hPa SSE 9.2 mph /  14.8 km/h 9.2 mph /  14.8 km/h 32 % 0 in /  0.0 mm
14:39 90 °F /  32.2 °C 57 °F /  13.9 °C 30 in /  1015.8 hPa SW 3.8 mph /  6.1 km/h 3.8 mph /  6.1 km/h 33 % 0 in /  0.0 mm
14:44 90.3 °F /  32.4 °C 57.4 °F /  14.1 °C 30 in /  1015.8 hPa South 4 mph /  6.4 km/h 4 mph /  6.4 km/h 33 % 0 in /  0.0 mm
14:49 90.9 °F /  32.7 °C 56.8 °F /  13.8 °C 30 in /  1015.8 hPa SSE 3.5 mph /  5.6 km/h 3.5 mph /  5.6 km/h 32 % 0 in /  0.0 mm
14:54 90 °F /  32.2 °C 56.1 °F /  13.4 °C 30 in /  1015.8 hPa South 5.8 mph /  9.3 km/h 5.8 mph /  9.3 km/h 32 % 0 in /  0.0 mm
14:59 90 °F /  32.2 °C 56.1 °F /  13.4 °C 30 in /  1014.8 hPa SSW 8.1 mph /  13.0 km/h 8.1 mph /  13.0 km/h 32 % 0 in /  0.0 mm
15:04 90.3 °F /  32.4 °C 56.5 °F /  13.6 °C 30 in /  1014.8 hPa SW 5.8 mph /  9.3 km/h 5.8 mph /  9.3 km/h 32 % 0 in /  0.0 mm
15:09 90.3 °F /  32.4 °C 56.5 °F /  13.6 °C 30 in /  1014.8 hPa WSW 4.6 mph /  7.4 km/h 4.6 mph /  7.4 km/h 32 % 0 in /  0.0 mm
15:14 90.1 °F /  32.3 °C 56.3 °F /  13.5 °C 30 in /  1015.8 hPa SW 5.8 mph /  9.3 km/h 5.8 mph /  9.3 km/h 32 % 0 in /  0.0 mm
15:19 90 °F /  32.2 °C 55.2 °F /  12.9 °C 30 in /  1015.8 hPa South 9.2 mph /  14.8 km/h 9.2 mph /  14.8 km/h 31 % 0 in /  0.0 mm
15:24 90.7 °F /  32.6 °C 56.8 °F /  13.8 °C 30 in /  1015.8 hPa West 4.6 mph /  7.4 km/h 4.6 mph /  7.4 km/h 32 % 0 in /  0.0 mm
15:29 90.3 °F /  32.4 °C 55.6 °F /  13.1 °C 30 in /  1015.8 hPa WSW 4.6 mph /  7.4 km/h 4.6 mph /  7.4 km/h 31 % 0 in /  0.0 mm
15:34 91 °F /  32.8 °C 57 °F /  13.9 °C 30 in /  1015.8 hPa WNW 4.6 mph /  7.4 km/h 4.6 mph /  7.4 km/h 32 % 0 in /  0.0 mm
15:39 91.4 °F /  33.0 °C 56.5 °F /  13.6 °C 30 in /  1015.8 hPa South 5.8 mph /  9.3 km/h 5.8 mph /  9.3 km/h 31 % 0 in /  0.0 mm
15:44 91.2 °F /  32.9 °C 56.5 °F /  13.6 °C 30 in /  1015.8 hPa SSW 5.8 mph /  9.3 km/h 5.8 mph /  9.3 km/h 31 % 0 in /  0.0 mm
15:49 91 °F /  32.8 °C 56.1 °F /  13.4 °C 30 in /  1015.8 hPa SSW 5.8 mph /  9.3 km/h 5.8 mph /  9.3 km/h 31 % 0 in /  0.0 mm
15:54 90.7 °F /  32.6 °C 55.9 °F /  13.3 °C 30 in /  1015.8 hPa WSW 8.1 mph /  13.0 km/h 8.1 mph /  13.0 km/h 31 % 0 in /  0.0 mm
15:59 90.9 °F /  32.7 °C 55.9 °F /  13.3 °C 30 in /  1015.8 hPa SSW 8.1 mph /  13.0 km/h 8.1 mph /  13.0 km/h 31 % 0 in /  0.0 mm
16:05 90.1 °F /  32.3 °C 54.5 °F /  12.5 °C 30 in /  1015.8 hPa SW 5.4 mph /  8.7 km/h 5.4 mph /  8.7 km/h 30 % 0 in /  0.0 mm
16:15 91.4 °F /  33.0 °C 54.7 °F /  12.6 °C 30 in /  1015.8 hPa SSW 10.5 mph /  16.9 km/h 10.5 mph /  16.9 km/h 29 % 0 in /  0.0 mm
16:20 89.8 °F /  32.1 °C 54.1 °F /  12.3 °C 30 in /  1015.8 hPa WSW 8.1 mph /  13.0 km/h 8.1 mph /  13.0 km/h 30 % 0 in /  0.0 mm
16:25 89.2 °F /  31.8 °C 54.7 °F /  12.6 °C 30 in /  1015.8 hPa WSW 10.4 mph /  16.7 km/h 10.4 mph /  16.7 km/h 31 % 0 in /  0.0 mm
16:30 89.6 °F /  32.0 °C 55 °F /  12.8 °C 30 in /  1015.8 hPa SSE 8.1 mph /  13.0 km/h 8.1 mph /  13.0 km/h 31 % 0 in /  0.0 mm
16:35 89.4 °F /  31.9 °C 54.9 °F /  12.7 °C 30 in /  1015.8 hPa South 7.1 mph /  11.4 km/h 7.1 mph /  11.4 km/h 31 % 0 in /  0.0 mm
16:40 88.5 °F /  31.4 °C 53.1 °F /  11.7 °C 30 in /  1015.8 hPa South 13.8 mph /  22.2 km/h 13.8 mph /  22.2 km/h 30 % 0 in /  0.0 mm
16:45 88.2 °F /  31.2 °C 52.9 °F /  11.6 °C 30 in /  1015.8 hPa West 6.9 mph /  11.1 km/h 6.9 mph /  11.1 km/h 30 % 0 in /  0.0 mm
16:50 89.1 °F /  31.7 °C 54.5 °F /  12.5 °C 30 in /  1015.8 hPa SW 5.8 mph /  9.3 km/h 5.8 mph /  9.3 km/h 31 % 0 in /  0.0 mm
16:55 88.9 °F /  31.6 °C 54.3 °F /  12.4 °C 30 in /  1015.8 hPa SSW 8.1 mph /  13.0 km/h 8.1 mph /  13.0 km/h 31 % 0 in /  0.0 mm
17:00 88.9 °F /  31.6 °C 54.3 °F /  12.4 °C 30 in /  1015.8 hPa SW 6 mph /  9.7 km/h 6 mph /  9.7 km/h 31 % 0 in /  0.0 mm
17:05 88.2 °F /  31.2 °C 53.8 °F /  12.1 °C 30 in /  1015.8 hPa SW 5.9 mph /  9.5 km/h 5.9 mph /  9.5 km/h 31 % 0 in /  0.0 mm
17:10 88.3 °F /  31.3 °C 53.1 °F /  11.7 °C 30 in /  1015.8 hPa SW 6.9 mph /  11.1 km/h 6.9 mph /  11.1 km/h 30 % 0 in /  0.0 mm
17:15 87.8 °F /  31.0 °C 53.4 °F /  11.9 °C 30 in /  1014.8 hPa South 6.4 mph /  10.3 km/h 6.4 mph /  10.3 km/h 31 % 0 in /  0.0 mm
17:20 88.2 °F /  31.2 °C 53.8 °F /  12.1 °C 30 in /  1014.8 hPa SW 10.4 mph /  16.7 km/h 10.4 mph /  16.7 km/h 31 % 0 in /  0.0 mm
17:25 87.8 °F /  31.0 °C 53.4 °F /  11.9 °C 30 in /  1014.8 hPa South 5.8 mph /  9.3 km/h 5.8 mph /  9.3 km/h 31 % 0 in /  0.0 mm
17:30 88.7 °F /  31.5 °C 54.1 °F /  12.3 °C 30 in /  1016.8 hPa SSW 4.6 mph /  7.4 km/h 4.6 mph /  7.4 km/h 31 % 0 in /  0.0 mm
17:35 88.7 °F /  31.5 °C 54.1 °F /  12.3 °C 30 in /  1016.8 hPa SSW 5.8 mph /  9.3 km/h 5.8 mph /  9.3 km/h 31 % 0 in /  0.0 mm
17:40 88 °F /  31.1 °C 53.6 °F /  12.0 °C 30 in /  1016.8 hPa West 5.8 mph /  9.3 km/h 5.8 mph /  9.3 km/h 31 % 0 in /  0.0 mm
17:45 87.8 °F /  31.0 °C 53.4 °F /  11.9 °C 30 in /  1014.8 hPa SSW 11.5 mph /  18.5 km/h 11.5 mph /  18.5 km/h 31 % 0 in /  0.0 mm
17:50 87.1 °F /  30.6 °C 52.9 °F /  11.6 °C 30 in /  1014.8 hPa SW 8.1 mph /  13.0 km/h 8.1 mph /  13.0 km/h 31 % 0 in /  0.0 mm
17:52 86.7 °F /  30.4 °C 52.5 °F /  11.4 °C 30 in /  1014.8 hPa SW 8.1 mph /  13.0 km/h 8.1 mph /  13.0 km/h 31 % 0 in /  0.0 mm
17:57 86.7 °F /  30.4 °C 53.2 °F /  11.8 °C 30 in /  1014.8 hPa WSW 6.9 mph /  11.1 km/h 7.1 mph /  11.4 km/h 32 % 0 in /  0.0 mm
18:02 86.9 °F /  30.5 °C 53.4 °F /  11.9 °C 30 in /  1015.8 hPa West 5.8 mph /  9.3 km/h 5.8 mph /  9.3 km/h 32 % 0 in /  0.0 mm
18:07 86.5 °F /  30.3 °C 52.3 °F /  11.3 °C 30 in /  1015.8 hPa SW 8.1 mph /  13.0 km/h 8.1 mph /  13.0 km/h 31 % 0 in /  0.0 mm
18:12 86 °F /  30.0 °C 51.8 °F /  11.0 °C 30 in /  1015.8 hPa SW 9.2 mph /  14.8 km/h 9.2 mph /  14.8 km/h 31 % 0 in /  0.0 mm
18:17 86 °F /  30.0 °C 52.7 °F /  11.5 °C 30 in /  1014.8 hPa WSW 7.6 mph /  12.2 km/h 7.6 mph /  12.2 km/h 32 % 0 in /  0.0 mm
18:22 86.2 °F /  30.1 °C 52.9 °F /  11.6 °C 30 in /  1014.8 hPa SW 5.9 mph /  9.5 km/h 5.9 mph /  9.5 km/h 32 % 0 in /  0.0 mm
18:27 85.3 °F /  29.6 °C 52.2 °F /  11.2 °C 30 in /  1014.8 hPa SW 7.1 mph /  11.4 km/h 7.1 mph /  11.4 km/h 32 % 0 in /  0.0 mm
18:32 85.8 °F /  29.9 °C 52.5 °F /  11.4 °C 30 in /  1015.8 hPa SW 4.6 mph /  7.4 km/h 4.6 mph /  7.4 km/h 32 % 0 in /  0.0 mm
18:37 86 °F /  30.0 °C 52.7 °F /  11.5 °C 30 in /  1015.8 hPa West 5.8 mph /  9.3 km/h 5.8 mph /  9.3 km/h 32 % 0 in /  0.0 mm
18:42 86 °F /  30.0 °C 52.7 °F /  11.5 °C 30 in /  1015.8 hPa WSW 9.2 mph /  14.8 km/h 9.2 mph /  14.8 km/h 32 % 0 in /  0.0 mm
18:47 85.5 °F /  29.7 °C 52.2 °F /  11.2 °C 30 in /  1015.8 hPa SW 5.8 mph /  9.3 km/h 5.8 mph /  9.3 km/h 32 % 0 in /  0.0 mm
18:52 85.3 °F /  29.6 °C 52.2 °F /  11.2 °C 30 in /  1015.8 hPa West 6.9 mph /  11.1 km/h 6.9 mph /  11.1 km/h 32 % 0 in /  0.0 mm
18:57 85.1 °F /  29.5 °C 52 °F /  11.1 °C 30 in /  1015.8 hPa WSW 5.8 mph /  9.3 km/h 5.8 mph /  9.3 km/h 32 % 0 in /  0.0 mm
19:02 85.1 °F /  29.5 °C 52 °F /  11.1 °C 30 in /  1015.8 hPa South 4.6 mph /  7.4 km/h 4.6 mph /  7.4 km/h 32 % 0 in /  0.0 mm
19:07 84.7 °F /  29.3 °C 51.6 °F /  10.9 °C 30 in /  1015.8 hPa SSW 5.9 mph /  9.5 km/h 5.9 mph /  9.5 km/h 32 % 0 in /  0.0 mm
19:12 84.6 °F /  29.2 °C 51.4 °F /  10.8 °C 30 in /  1015.8 hPa WSW 4.9 mph /  7.9 km/h 4.9 mph /  7.9 km/h 32 % 0 in /  0.0 mm
19:13 84.6 °F /  29.2 °C 51.4 °F /  10.8 °C 30 in /  1015.8 hPa SSW 4.6 mph /  7.4 km/h 4.6 mph /  7.4 km/h 32 % 0 in /  0.0 mm
19:18 84 °F /  28.9 °C 51.1 °F /  10.6 °C 30 in /  1015.8 hPa SW 6.9 mph /  11.1 km/h 6.9 mph /  11.1 km/h 32 % 0 in /  0.0 mm
19:23 83.7 °F /  28.7 °C 50.7 °F /  10.4 °C 30 in /  1015.8 hPa SW 5.9 mph /  9.5 km/h 5.9 mph /  9.5 km/h 32 % 0 in /  0.0 mm
19:28 83.5 °F /  28.6 °C 51.3 °F /  10.7 °C 30 in /  1015.8 hPa SW 5.8 mph /  9.3 km/h 5.8 mph /  9.3 km/h 33 % 0 in /  0.0 mm
19:33 83.1 °F /  28.4 °C 51.1 °F /  10.6 °C 30 in /  1015.8 hPa SW 5.8 mph /  9.3 km/h 5.8 mph /  9.3 km/h 33 % 0 in /  0.0 mm
19:38 82.9 °F /  28.3 °C 50 °F /  10.0 °C 30 in /  1015.8 hPa WSW 4.6 mph /  7.4 km/h 4.6 mph /  7.4 km/h 32 % 0 in /  0.0 mm
19:43 82.6 °F /  28.1 °C 49.6 °F /  9.8 °C 30 in /  1015.8 hPa SW 9.2 mph /  14.8 km/h 9.2 mph /  14.8 km/h 32 % 0 in /  0.0 mm
19:48 82.4 °F /  28.0 °C 50.4 °F /  10.2 °C 30 in /  1015.8 hPa WSW 5.8 mph /  9.3 km/h 5.8 mph /  9.3 km/h 33 % 0 in /  0.0 mm
19:53 81.9 °F /  27.7 °C 49.8 °F /  9.9 °C 30 in /  1015.8 hPa SSW 5.8 mph /  9.3 km/h 5.8 mph /  9.3 km/h 33 % 0 in /  0.0 mm
19:58 81.7 °F /  27.6 °C 49.8 °F /  9.9 °C 30 in /  1015.8 hPa SW 5.8 mph /  9.3 km/h 5.8 mph /  9.3 km/h 33 % 0 in /  0.0 mm
20:03 81.5 °F /  27.5 °C 50.4 °F /  10.2 °C 30 in /  1015.8 hPa WSW 4.6 mph /  7.4 km/h 4.6 mph /  7.4 km/h 34 % 0 in /  0.0 mm
20:08 81.1 °F /  27.3 °C 50.2 °F /  10.1 °C 30 in /  1015.8 hPa SW 4.6 mph /  7.4 km/h 4.6 mph /  7.4 km/h 34 % 0 in /  0.0 mm
20:13 81 °F /  27.2 °C 50.7 °F /  10.4 °C 30 in /  1015.8 hPa West 3.5 mph /  5.6 km/h 3.5 mph /  5.6 km/h 35 % 0 in /  0.0 mm
20:18 80.6 °F /  27.0 °C 50.4 °F /  10.2 °C 30 in /  1015.8 hPa SW 4.6 mph /  7.4 km/h 4.6 mph /  7.4 km/h 35 % 0 in /  0.0 mm
20:20 80.6 °F /  27.0 °C 50.4 °F /  10.2 °C 30 in /  1015.8 hPa WSW 5.8 mph /  9.3 km/h 5.8 mph /  9.3 km/h 35 % 0 in /  0.0 mm
20:25 80.2 °F /  26.8 °C 50.9 °F /  10.5 °C 30 in /  1015.8 hPa SW 4.6 mph /  7.4 km/h 4.6 mph /  7.4 km/h 36 % 0 in /  0.0 mm
20:30 80.1 °F /  26.7 °C 50.7 °F /  10.4 °C 30 in /  1015.8 hPa SW 2.6 mph /  4.2 km/h 2.6 mph /  4.2 km/h 36 % 0 in /  0.0 mm
20:35 79.7 °F /  26.5 °C 51.1 °F /  10.6 °C 30 in /  1015.8 hPa WSW 3.5 mph /  5.6 km/h 3.5 mph /  5.6 km/h 37 % 0 in /  0.0 mm
20:40 79.3 °F /  26.3 °C 50.7 °F /  10.4 °C 30 in /  1015.8 hPa SW 2.4 mph /  3.9 km/h 2.4 mph /  3.9 km/h 37 % 0 in /  0.0 mm
20:45 79 °F /  26.1 °C 50.5 °F /  10.3 °C 30 in /  1015.8 hPa SW 2.4 mph /  3.9 km/h 2.4 mph /  3.9 km/h 37 % 0 in /  0.0 mm
20:50 78.6 °F /  25.9 °C 50.9 °F /  10.5 °C 30 in /  1015.8 hPa West 3.5 mph /  5.6 km/h 3.5 mph /  5.6 km/h 38 % 0 in /  0.0 mm
20:55 78.3 °F /  25.7 °C 50.5 °F /  10.3 °C 30 in /  1015.8 hPa WSW 2.3 mph /  3.7 km/h 2.3 mph /  3.7 km/h 38 % 0 in /  0.0 mm
21:00 77.9 °F /  25.5 °C 50.2 °F /  10.1 °C 30 in /  1015.8 hPa WSW 2.4 mph /  3.9 km/h 2.4 mph /  3.9 km/h 38 % 0 in /  0.0 mm
21:05 77.7 °F /  25.4 °C 50.7 °F /  10.4 °C 30 in /  1015.8 hPa SW 2.3 mph /  3.7 km/h 2.3 mph /  3.7 km/h 39 % 0 in /  0.0 mm
21:10 77.4 °F /  25.2 °C 50.5 °F /  10.3 °C 30 in /  1015.8 hPa WSW 2.3 mph /  3.7 km/h 2.3 mph /  3.7 km/h 39 % 0 in /  0.0 mm
21:15 77.2 °F /  25.1 °C 50.4 °F /  10.2 °C 30 in /  1015.8 hPa WSW 2.3 mph /  3.7 km/h 2.3 mph /  3.7 km/h 39 % 0 in /  0.0 mm
21:20 76.8 °F /  24.9 °C 51.3 °F /  10.7 °C 30 in /  1015.8 hPa SW 2.3 mph /  3.7 km/h 2.3 mph /  3.7 km/h 41 % 0 in /  0.0 mm
21:25 76.6 °F /  24.8 °C 51.3 °F /  10.7 °C 30 in /  1015.8 hPa Calm     41 % 0 in /  0.0 mm
21:30 76.3 °F /  24.6 °C 51.4 °F /  10.8 °C 30 in /  1015.8 hPa ENE 2.3 mph /  3.7 km/h 2.3 mph /  3.7 km/h 42 % 0 in /  0.0 mm
21:35 76.3 °F /  24.6 °C 51.4 °F /  10.8 °C 30 in /  1015.8 hPa ENE 1.2 mph /  1.9 km/h 1.2 mph /  1.9 km/h 42 % 0 in /  0.0 mm
21:40 76.1 °F /  24.5 °C 51.3 °F /  10.7 °C 30 in /  1015.8 hPa Calm     42 % 0 in /  0.0 mm
21:45 75.9 °F /  24.4 °C 51.8 °F /  11.0 °C 30 in /  1015.8 hPa ENE 1.2 mph /  1.9 km/h   43 % 0 in /  0.0 mm
21:50 75.9 °F /  24.4 °C 51.8 °F /  11.0 °C 30 in /  1015.8 hPa Calm     43 % 0 in /  0.0 mm
21:55 76.1 °F /  24.5 °C 52 °F /  11.1 °C 30 in /  1015.8 hPa Calm     43 % 0 in /  0.0 mm
22:00 75.9 °F /  24.4 °C 52.3 °F /  11.3 °C 30 in /  1016.8 hPa East 2.4 mph /  3.9 km/h 2.4 mph /  3.9 km/h 44 % 0 in /  0.0 mm
22:05 75.6 °F /  24.2 °C 52.7 °F /  11.5 °C 30 in /  1016.8 hPa NE 2.4 mph /  3.9 km/h 2.4 mph /  3.9 km/h 45 % 0 in /  0.0 mm
22:10 75.2 °F /  24.0 °C 53.1 °F /  11.7 °C 30 in /  1016.8 hPa ENE 1.2 mph /  1.9 km/h 1.2 mph /  1.9 km/h 46 % 0 in /  0.0 mm
22:15 75.2 °F /  24.0 °C 53.6 °F /  12.0 °C 30.1 in /  1017.8 hPa NNE 1.4 mph /  2.3 km/h 1.4 mph /  2.3 km/h 47 % 0 in /  0.0 mm
22:20 75 °F /  23.9 °C 54 °F /  12.2 °C 30.1 in /  1017.8 hPa Calm     48 % 0 in /  0.0 mm
22:25 74.8 °F /  23.8 °C 54.3 °F /  12.4 °C 30.1 in /  1017.8 hPa NNE 1.2 mph /  1.9 km/h   49 % 0 in /  0.0 mm
22:30 74.7 °F /  23.7 °C 54.9 °F /  12.7 °C 30 in /  1016.8 hPa NNE 1.2 mph /  1.9 km/h   50 % 0 in /  0.0 mm
22:35 74.5 °F /  23.6 °C 55.2 °F /  12.9 °C 30 in /  1016.8 hPa NNE 1.2 mph /  1.9 km/h   51 % 0 in /  0.0 mm
22:40 74.3 °F /  23.5 °C 55.6 °F /  13.1 °C 30 in /  1016.8 hPa North 1.2 mph /  1.9 km/h   52 % 0 in /  0.0 mm
22:45 74.1 °F /  23.4 °C 55.4 °F /  13.0 °C 30.1 in /  1017.8 hPa NNE 2.3 mph /  3.7 km/h 2.3 mph /  3.7 km/h 52 % 0 in /  0.0 mm
22:50 73.8 °F /  23.2 °C 55.6 °F /  13.1 °C 30.1 in /  1017.8 hPa Calm     53 % 0 in /  0.0 mm
22:55 73.6 °F /  23.1 °C 55.9 °F /  13.3 °C 30.1 in /  1017.8 hPa Calm     54 % 0 in /  0.0 mm
23:00 73.4 °F /  23.0 °C 56.1 °F /  13.4 °C 30.1 in /  1017.8 hPa NNE 1.2 mph /  1.9 km/h   55 % 0 in /  0.0 mm
23:05 73.2 °F /  22.9 °C 56.1 °F /  13.4 °C 30.1 in /  1017.8 hPa NW 1.2 mph /  1.9 km/h 1.2 mph /  1.9 km/h 55 % 0 in /  0.0 mm
23:10 73 °F /  22.8 °C 55.9 °F /  13.3 °C 30.1 in /  1017.8 hPa NNW 1.2 mph /  1.9 km/h   55 % 0 in /  0.0 mm
23:15 73 °F /  22.8 °C 56.5 °F /  13.6 °C 30.1 in /  1017.8 hPa Calm     56 % 0 in /  0.0 mm
23:20 72.9 °F /  22.7 °C 56.1 °F /  13.4 °C 30.1 in /  1017.8 hPa Calm     56 % 0 in /  0.0 mm
23:25 72.7 °F /  22.6 °C 56.7 °F /  13.7 °C 30.1 in /  1017.8 hPa North 1.2 mph /  1.9 km/h   57 % 0 in /  0.0 mm
23:30 72.5 °F /  22.5 °C 56.5 °F /  13.6 °C 30.1 in /  1017.8 hPa Calm     57 % 0 in /  0.0 mm
23:35 72.5 °F /  22.5 °C 56.8 °F /  13.8 °C 30.1 in /  1017.8 hPa NE 2.3 mph /  3.7 km/h 2.3 mph /  3.7 km/h 58 % 0 in /  0.0 mm
23:40 72.3 °F /  22.4 °C 56.7 °F /  13.7 °C 30.1 in /  1017.8 hPa NE 1.2 mph /  1.9 km/h 1.2 mph /  1.9 km/h 58 % 0 in /  0.0 mm
23:45 72.1 °F /  22.3 °C 57 °F /  13.9 °C 30.1 in /  1017.8 hPa Calm     59 % 0 in /  0.0 mm
23:50 72.1 °F /  22.3 °C 57 °F /  13.9 °C 30.1 in /  1017.8 hPa NNE 2.4 mph /  3.9 km/h 2.4 mph /  3.9 km/h 59 % 0 in /  0.0 mm
23:55 72 °F /  22.2 °C 56.8 °F /  13.8 °C 30.1 in /  1017.8 hPa NNE 2.3 mph /  3.7 km/h 2.3 mph /  3.7 km/h 59 % 0 in /  0.0 mm
Meteo Sesrovires
Elogis d' Weather Underground - 3.5 mb

Guio original per  Jim McMurry - jmcmurry@mwt.net Adaptat per a la plantilla per  Wim van der Kuil - Leuven-Template.eu

Trobareu la nostra informacio del temps tambe a:

Weather Underground

AWEKAS